createdAt,value
2018-01-18T00:01:55.241Z,5.20
2018-01-18T00:04:23.351Z,5.70
2018-01-18T00:06:52.196Z,5.63
2018-01-18T00:09:20.322Z,5.50
2018-01-18T00:11:48.432Z,5.40
2018-01-18T00:14:17.326Z,6.30
2018-01-18T00:16:45.429Z,5.83
2018-01-18T00:19:13.536Z,6.93
2018-01-18T00:21:42.424Z,6.77
2018-01-18T00:24:10.549Z,7.33
2018-01-18T00:26:38.670Z,5.77
2018-01-18T00:29:07.545Z,6.70
2018-01-18T00:31:35.641Z,6.63
2018-01-18T00:34:04.018Z,6.10
2018-01-18T00:36:32.129Z,6.20
2018-01-18T00:39:01.027Z,6.53
2018-01-18T00:41:30.013Z,5.90
2018-01-18T00:43:58.140Z,6.27
2018-01-18T00:46:26.322Z,6.60
2018-01-18T00:48:55.221Z,6.47
2018-01-18T00:51:23.281Z,5.37
2018-01-18T00:53:52.181Z,5.83
2018-01-18T00:56:20.384Z,6.70
2018-01-18T00:58:48.523Z,8.33
2018-01-18T01:01:17.607Z,7.67
2018-01-18T01:03:45.764Z,6.80
2018-01-18T01:06:15.521Z,6.23
2018-01-18T01:08:43.710Z,7.57
2018-01-18T01:11:11.884Z,6.20
2018-01-18T01:13:39.979Z,6.37
2018-01-18T01:16:08.105Z,6.20
2018-01-18T01:18:36.228Z,6.90
2018-01-18T01:21:05.134Z,8.20
2018-01-18T01:23:33.258Z,6.50
2018-01-18T01:26:01.370Z,9.47
2018-01-18T01:28:29.481Z,7.13
2018-01-18T01:30:57.598Z,7.90
2018-01-18T01:33:25.707Z,7.83
2018-01-18T01:35:53.885Z,8.83
2018-01-18T01:38:21.983Z,8.23
2018-01-18T01:40:50.319Z,8.03
2018-01-18T01:43:18.412Z,8.73
2018-01-18T01:45:46.530Z,8.63
2018-01-18T01:48:14.668Z,8.10
2018-01-18T01:50:42.803Z,8.57
2018-01-18T01:53:10.933Z,8.73
2018-01-18T01:55:39.791Z,7.77
2018-01-18T01:58:07.946Z,8.00
2018-01-18T02:00:36.065Z,7.53
2018-01-18T02:03:04.205Z,7.33
2018-01-18T02:05:32.365Z,7.27
2018-01-18T02:08:01.313Z,7.47
2018-01-18T02:10:29.469Z,6.87
2018-01-18T02:12:57.666Z,7.13
2018-01-18T02:15:25.836Z,6.80
2018-01-18T02:17:54.362Z,7.10
2018-01-18T02:20:22.437Z,5.90
2018-01-18T02:22:50.831Z,6.50
2018-01-18T02:25:19.036Z,5.87
2018-01-18T02:27:47.182Z,6.80
2018-01-18T02:30:15.354Z,6.43
2018-01-18T02:32:43.515Z,7.00
2018-01-18T02:35:11.719Z,6.70
2018-01-18T02:37:39.860Z,6.17
2018-01-18T02:40:08.013Z,6.13
2018-01-18T02:42:36.117Z,7.00
2018-01-18T02:45:04.230Z,6.00
2018-01-18T02:47:32.568Z,5.80
2018-01-18T02:50:00.855Z,6.23
2018-01-18T02:52:29.727Z,5.10
2018-01-18T02:54:57.817Z,5.10
2018-01-18T02:57:26.717Z,6.73
2018-01-18T02:59:55.583Z,6.17
2018-01-18T03:02:23.746Z,5.53
2018-01-18T03:04:51.885Z,5.13
2018-01-18T03:07:20.985Z,5.30
2018-01-18T03:09:49.127Z,5.70
2018-01-18T03:12:17.228Z,5.40
2018-01-18T03:14:45.345Z,5.50
2018-01-18T03:17:13.676Z,4.97
2018-01-18T03:19:41.763Z,5.73
2018-01-18T03:22:09.864Z,5.50
2018-01-18T03:24:37.967Z,4.97
2018-01-18T03:27:06.078Z,5.30
2018-01-18T03:29:34.434Z,5.50
2018-01-18T03:32:02.532Z,5.70
2018-01-18T03:34:30.651Z,5.80
2018-01-18T03:36:58.988Z,6.50
2018-01-18T03:39:27.163Z,5.13
2018-01-18T03:41:55.356Z,5.17
2018-01-18T03:44:23.562Z,5.67
2018-01-18T03:46:51.744Z,5.33
2018-01-18T03:49:19.856Z,6.47
2018-01-18T03:51:48.402Z,4.67
2018-01-18T03:54:16.556Z,4.40
2018-01-18T03:56:44.665Z,5.03
2018-01-18T03:59:12.866Z,5.23
2018-01-18T04:01:41.354Z,5.23
2018-01-18T04:04:09.477Z,3.80
2018-01-18T04:06:38.381Z,4.47
2018-01-18T04:09:07.250Z,5.47
2018-01-18T04:11:35.673Z,4.77
2018-01-18T04:14:03.881Z,4.40
2018-01-18T04:16:32.045Z,5.10
2018-01-18T04:19:00.126Z,6.60
2018-01-18T04:21:28.220Z,4.63
2018-01-18T04:23:56.354Z,5.33
2018-01-18T04:26:24.441Z,4.30
2018-01-18T04:28:52.552Z,5.40
2018-01-18T04:31:20.668Z,4.90
2018-01-18T04:33:48.802Z,5.37
2018-01-18T04:36:16.961Z,5.60
2018-01-18T04:38:45.106Z,5.67
2018-01-18T04:41:14.772Z,5.43
2018-01-18T04:43:42.867Z,5.57
2018-01-18T04:46:10.981Z,5.63
2018-01-18T04:48:39.077Z,5.77
2018-01-18T04:51:07.966Z,5.70
2018-01-18T04:53:36.072Z,6.20
2018-01-18T04:56:04.169Z,5.60
2018-01-18T04:58:32.327Z,5.43
2018-01-18T05:01:00.424Z,6.80
2018-01-18T05:03:29.348Z,5.60
2018-01-18T05:05:57.460Z,6.60
2018-01-18T05:08:25.577Z,6.77
2018-01-18T05:11:01.175Z,6.20
2018-01-18T05:13:29.302Z,6.50
2018-01-18T05:15:57.482Z,7.30
2018-01-18T05:18:25.999Z,6.57
2018-01-18T05:20:54.155Z,6.20
2018-01-18T05:23:22.334Z,5.83
2018-01-18T05:25:50.468Z,6.60
2018-01-18T05:28:19.394Z,6.23
2018-01-18T05:30:47.599Z,7.00
2018-01-18T05:33:15.834Z,6.40
2018-01-18T05:35:46.131Z,5.70
2018-01-18T05:43:16.107Z,6.10
2018-01-18T05:45:44.346Z,7.43
2018-01-18T05:48:25.403Z,6.80
2018-01-18T05:50:53.801Z,6.03
2018-01-18T05:53:21.945Z,6.03
2018-01-18T05:58:52.070Z,6.90
2018-01-18T06:01:20.222Z,7.10
2018-01-18T06:03:50.441Z,8.67
2018-01-18T06:06:18.554Z,6.90
2018-01-18T06:08:46.681Z,6.90
2018-01-18T06:11:14.859Z,8.43
2018-01-18T06:13:43.021Z,8.00
2018-01-18T06:16:11.151Z,8.10
2018-01-18T06:18:39.274Z,8.00
2018-01-18T06:21:09.381Z,7.60
2018-01-18T06:23:37.537Z,8.80
2018-01-18T06:26:05.685Z,9.40
2018-01-18T06:28:33.792Z,7.97
2018-01-18T06:31:01.916Z,8.03
2018-01-18T06:33:30.094Z,7.70
2018-01-18T06:35:58.981Z,8.77
2018-01-18T06:38:27.183Z,8.70
2018-01-18T06:40:55.377Z,9.50
2018-01-18T06:43:23.506Z,9.30
2018-01-18T06:45:51.668Z,9.10
2018-01-18T06:48:19.861Z,7.53
2018-01-18T06:50:47.996Z,8.37
2018-01-18T06:53:16.136Z,8.33
2018-01-18T06:55:44.288Z,8.80
2018-01-18T06:58:12.425Z,8.07
2018-01-18T07:00:40.567Z,8.60
2018-01-18T07:03:08.768Z,8.10
2018-01-18T07:05:36.912Z,7.40
2018-01-18T07:08:05.833Z,8.30
2018-01-18T07:10:33.961Z,7.80
2018-01-18T07:13:02.086Z,7.70
2018-01-18T07:15:30.208Z,7.67
2018-01-18T07:17:58.331Z,8.40
2018-01-18T07:20:26.533Z,8.37
2018-01-18T07:22:54.660Z,7.10
2018-01-18T07:25:22.785Z,7.50
2018-01-18T07:27:51.706Z,6.47
2018-01-18T07:30:19.841Z,6.33
2018-01-18T07:32:48.062Z,7.60
2018-01-18T07:35:16.137Z,7.40
2018-01-18T07:37:44.434Z,6.67
2018-01-18T07:40:12.620Z,7.90
2018-01-18T07:42:41.081Z,6.73
2018-01-18T07:45:09.427Z,6.40
2018-01-18T07:47:37.512Z,5.93
2018-01-18T07:50:05.708Z,5.90
2018-01-18T07:52:33.849Z,6.30
2018-01-18T07:55:04.133Z,6.47
2018-01-18T07:57:32.902Z,7.70
2018-01-18T08:00:02.463Z,6.90
2018-01-18T08:02:30.640Z,7.37
2018-01-18T08:04:58.855Z,8.13
2018-01-18T08:07:27.003Z,6.47
2018-01-18T08:09:55.161Z,7.10
2018-01-18T08:12:23.323Z,6.70
2018-01-18T08:14:51.454Z,5.40
2018-01-18T08:17:19.664Z,7.17
2018-01-18T08:19:47.790Z,6.77
2018-01-18T08:22:16.113Z,6.10
2018-01-18T08:24:45.232Z,7.00
2018-01-18T08:27:14.472Z,6.10
2018-01-18T08:29:42.854Z,6.97
2018-01-18T08:32:11.012Z,5.90
2018-01-18T08:34:39.149Z,4.63
2018-01-18T08:37:07.339Z,4.90
2018-01-18T08:39:35.426Z,5.17
2018-01-18T08:42:03.541Z,4.63
2018-01-18T08:44:31.667Z,4.70
2018-01-18T08:46:59.910Z,4.70
2018-01-18T08:49:28.818Z,4.50
2018-01-18T08:51:56.967Z,5.17
2018-01-18T08:54:25.165Z,4.20
2018-01-18T08:56:53.364Z,4.90
2018-01-18T08:59:21.537Z,3.77
2018-01-18T09:01:49.688Z,3.23
2018-01-18T09:04:17.852Z,3.37
2018-01-18T09:06:45.989Z,3.00
2018-01-18T09:09:14.210Z,2.90
2018-01-18T09:11:42.758Z,3.07
2018-01-18T09:14:11.091Z,3.50
2018-01-18T09:16:39.224Z,3.60
2018-01-18T09:19:07.356Z,3.90
2018-01-18T09:21:35.505Z,3.70
2018-01-18T09:24:03.629Z,4.07
2018-01-18T09:26:31.818Z,3.30
2018-01-18T09:29:00.034Z,3.00
2018-01-18T09:31:28.251Z,3.00
2018-01-18T09:33:56.466Z,2.93
2018-01-18T09:36:25.469Z,2.30
2018-01-18T09:38:53.627Z,1.63
2018-01-18T09:41:21.870Z,2.40
2018-01-18T09:43:50.059Z,1.73
2018-01-18T09:46:18.433Z,2.00
2018-01-18T09:48:46.639Z,1.30
2018-01-18T09:51:14.961Z,1.30
2018-01-18T09:53:43.254Z,1.60
2018-01-18T09:56:25.649Z,1.53
2018-01-18T09:58:53.873Z,0.97
2018-01-18T10:01:22.881Z,1.20
2018-01-18T10:03:51.070Z,1.00
2018-01-18T10:06:19.306Z,1.00
2018-01-18T10:08:47.545Z,1.33
2018-01-18T10:11:15.869Z,1.03
2018-01-18T10:13:43.994Z,1.00
2018-01-18T10:16:12.393Z,0.90
2018-01-18T10:18:40.584Z,1.00
2018-01-18T10:21:08.852Z,0.90
2018-01-18T10:23:37.001Z,1.20
2018-01-18T10:26:05.173Z,1.20
2018-01-18T10:28:33.374Z,1.00
2018-01-18T10:31:01.638Z,0.70
2018-01-18T10:33:29.893Z,0.80
2018-01-18T10:35:58.112Z,0.77
2018-01-18T10:38:27.085Z,1.17
2018-01-18T10:40:55.345Z,1.13
2018-01-18T10:43:23.670Z,2.97
2018-01-18T10:45:51.809Z,1.33
2018-01-18T10:48:20.387Z,1.57
2018-01-18T10:50:48.682Z,1.73
2018-01-18T10:53:16.884Z,1.80
2018-01-18T10:55:45.017Z,1.80
2018-01-18T10:58:13.929Z,1.10
2018-01-18T11:00:42.798Z,1.00
2018-01-18T11:03:10.957Z,1.07
2018-01-18T11:05:39.176Z,2.00
2018-01-18T11:08:07.403Z,2.50
2018-01-18T11:10:35.497Z,2.37
2018-01-18T11:13:04.686Z,3.20
2018-01-18T11:15:33.633Z,2.30
2018-01-18T11:18:01.825Z,2.40
2018-01-18T11:20:29.937Z,2.83
2018-01-18T11:22:58.096Z,2.50
2018-01-18T11:25:26.374Z,3.87
2018-01-18T11:27:54.830Z,4.53
2018-01-18T11:30:22.986Z,4.40
2018-01-18T11:32:51.084Z,2.57
2018-01-18T11:35:19.290Z,2.10
2018-01-18T11:37:47.464Z,1.70
2018-01-18T11:40:15.627Z,2.20
2018-01-18T11:42:43.773Z,2.63
2018-01-18T11:45:12.787Z,1.97
2018-01-18T11:47:41.299Z,2.30
2018-01-18T11:50:10.275Z,2.40
2018-01-18T11:52:38.484Z,2.67
2018-01-18T11:55:07.988Z,1.90
2018-01-18T11:57:39.059Z,2.00
2018-01-18T12:00:07.198Z,2.13
2018-01-18T12:02:35.494Z,2.40
2018-01-18T12:05:03.758Z,3.00
2018-01-18T12:07:31.983Z,2.73
2018-01-18T12:10:00.130Z,2.63
2018-01-18T12:12:28.297Z,2.17
2018-01-18T12:14:56.532Z,4.20
2018-01-18T12:17:24.785Z,3.17
2018-01-18T12:19:52.886Z,4.87
2018-01-18T12:22:21.895Z,3.17
2018-01-18T12:24:50.027Z,3.50
2018-01-18T12:27:18.235Z,3.77
2018-01-18T12:29:46.344Z,4.03
2018-01-18T12:32:22.930Z,4.43
2018-01-18T12:34:51.105Z,4.70
2018-01-18T12:37:19.290Z,4.43
2018-01-18T12:39:47.421Z,5.77
2018-01-18T12:42:15.603Z,4.83
2018-01-18T12:44:44.536Z,5.10
2018-01-18T12:47:12.713Z,4.47
2018-01-18T12:49:40.941Z,5.80
2018-01-18T12:52:09.114Z,5.37
2018-01-18T12:54:37.345Z,9.10
2018-01-18T12:57:05.450Z,5.57
2018-01-18T12:59:33.573Z,4.50
2018-01-18T13:02:01.669Z,5.57
2018-01-18T13:04:29.881Z,6.23
2018-01-18T13:06:58.200Z,5.63
2018-01-18T13:09:26.446Z,6.93
2018-01-18T13:11:54.654Z,5.30
2018-01-18T13:14:22.817Z,5.37
2018-01-18T13:16:50.913Z,6.27
2018-01-18T13:19:19.793Z,5.10
2018-01-18T13:21:47.969Z,6.97
2018-01-18T13:24:16.092Z,6.37
2018-01-18T13:26:44.298Z,6.07
2018-01-18T13:29:12.418Z,7.07
2018-01-18T13:31:40.562Z,6.67
2018-01-18T13:34:08.765Z,6.87
2018-01-18T13:36:37.417Z,4.10
2018-01-18T13:39:05.545Z,3.30
2018-01-18T13:41:33.811Z,3.67
2018-01-18T13:44:02.167Z,2.70
2018-01-18T13:46:30.287Z,3.10
2018-01-18T13:48:58.470Z,2.67
2018-01-18T13:51:26.667Z,2.40
2018-01-18T13:53:55.880Z,2.13
2018-01-18T13:56:24.006Z,2.70
2018-01-18T13:58:52.958Z,2.77
2018-01-18T14:01:21.173Z,2.63
2018-01-18T14:03:49.293Z,5.77
2018-01-18T14:06:17.465Z,4.50
2018-01-18T14:08:45.695Z,5.20
2018-01-18T14:11:13.906Z,6.53
2018-01-18T14:16:42.590Z,1.83
2018-01-18T14:19:10.774Z,1.90
2018-01-18T14:21:39.132Z,1.70
2018-01-18T14:24:07.308Z,2.37
2018-01-18T14:26:35.410Z,1.97
2018-01-18T14:29:03.596Z,1.80
2018-01-18T14:31:31.813Z,2.23
2018-01-18T14:33:59.943Z,2.03
2018-01-18T14:36:28.335Z,1.90
2018-01-18T14:38:56.566Z,2.10
2018-01-18T14:41:24.793Z,2.33
2018-01-18T14:43:53.014Z,1.77
2018-01-18T14:46:21.185Z,2.60
2018-01-18T14:48:49.523Z,2.60
2018-01-18T14:51:17.749Z,2.47
2018-01-18T14:53:45.893Z,2.50
2018-01-18T14:56:14.770Z,2.60
2018-01-18T14:58:42.886Z,2.77
2018-01-18T15:01:10.997Z,2.70
2018-01-18T15:03:39.177Z,2.87
2018-01-18T15:06:07.634Z,2.53
2018-01-18T15:08:35.727Z,3.37
2018-01-18T15:11:03.927Z,3.40
2018-01-18T15:13:32.098Z,3.03
2018-01-18T15:16:00.286Z,3.13
2018-01-18T15:18:28.486Z,3.00
2018-01-18T15:20:56.718Z,3.23
2018-01-18T15:23:24.845Z,2.40
2018-01-18T15:25:52.990Z,2.43
2018-01-18T15:28:22.275Z,4.60
2018-01-18T15:30:50.381Z,3.40
2018-01-18T15:33:18.547Z,3.30
2018-01-18T15:35:46.615Z,3.23
2018-01-18T15:38:14.881Z,2.77
2018-01-18T15:40:42.977Z,3.40
2018-01-18T15:43:11.150Z,3.23
2018-01-18T15:45:39.352Z,4.10
2018-01-18T15:48:07.490Z,4.30
2018-01-18T15:50:35.676Z,3.83
2018-01-18T15:53:04.095Z,4.57
2018-01-18T15:55:33.025Z,3.80
2018-01-18T15:58:01.128Z,5.37
2018-01-18T16:00:29.256Z,4.70
2018-01-18T16:02:57.435Z,4.70
2018-01-18T16:05:25.545Z,5.37
2018-01-18T16:07:53.729Z,5.00
2018-01-18T16:10:22.006Z,5.70
2018-01-18T16:12:50.307Z,5.40
2018-01-18T16:15:18.495Z,5.00
2018-01-18T16:17:46.887Z,5.80
2018-01-18T16:20:15.058Z,5.80
2018-01-18T16:22:43.267Z,6.07
2018-01-18T16:25:11.534Z,6.60
2018-01-18T16:27:39.895Z,5.57
2018-01-18T16:30:26.759Z,6.57
2018-01-18T16:32:55.739Z,6.43
2018-01-18T16:35:23.922Z,6.87
2018-01-18T16:37:52.113Z,7.73
2018-01-18T16:40:24.835Z,6.67
2018-01-18T16:42:53.046Z,7.73
2018-01-18T16:45:22.251Z,7.73
2018-01-18T16:47:50.361Z,8.23
2018-01-18T16:50:18.649Z,7.40
2018-01-18T16:52:47.777Z,7.73
2018-01-18T16:55:16.019Z,7.40
2018-01-18T16:57:48.866Z,7.80
2018-01-18T17:00:17.274Z,7.57
2018-01-18T17:02:48.645Z,7.63
2018-01-18T17:05:17.853Z,8.50
2018-01-18T17:07:46.849Z,7.37
2018-01-18T17:10:15.154Z,7.80
2018-01-18T17:12:43.290Z,8.13
2018-01-18T17:15:11.959Z,8.20
2018-01-18T17:17:40.154Z,8.40
2018-01-18T17:20:11.283Z,8.80
2018-01-18T17:22:39.407Z,8.10
2018-01-18T17:25:08.057Z,9.17
2018-01-18T17:27:36.355Z,7.80
2018-01-18T17:30:04.624Z,8.87
2018-01-18T17:32:32.781Z,8.63
2018-01-18T17:35:00.998Z,9.27
2018-01-18T17:37:29.231Z,9.50
2018-01-18T17:40:05.669Z,8.83
2018-01-18T17:42:33.893Z,9.90
2018-01-18T17:45:02.072Z,9.70
2018-01-18T17:47:30.446Z,9.17
2018-01-18T17:49:58.668Z,9.17
2018-01-18T17:52:26.864Z,10.43
2018-01-18T17:54:55.178Z,20.40
2018-01-18T17:57:23.686Z,11.50
2018-01-18T17:59:51.923Z,11.33
2018-01-18T18:02:20.059Z,13.40
2018-01-18T18:04:48.239Z,9.43
2018-01-18T18:07:16.532Z,11.80
2018-01-18T18:09:44.713Z,12.10
2018-01-18T18:12:12.938Z,11.63
2018-01-18T18:14:41.126Z,12.33
2018-01-18T18:17:09.341Z,11.90
2018-01-18T18:19:37.527Z,13.70
2018-01-18T18:22:06.322Z,13.40
2018-01-18T18:24:34.750Z,13.30
2018-01-18T18:27:02.941Z,13.53
2018-01-18T18:29:31.192Z,12.73
2018-01-18T18:32:03.853Z,13.33
2018-01-18T18:34:33.029Z,14.00
2018-01-18T18:37:01.168Z,15.10
2018-01-18T18:39:29.412Z,14.00
2018-01-18T18:41:57.763Z,13.77
2018-01-18T18:44:29.072Z,15.80
2018-01-18T18:46:57.257Z,14.90
2018-01-18T18:49:25.484Z,13.40
2018-01-18T18:51:54.777Z,13.83
2018-01-18T18:54:28.123Z,14.20
2018-01-18T18:56:57.815Z,12.87
2018-01-18T18:59:26.090Z,13.10
2018-01-18T19:01:54.380Z,12.20
2018-01-18T19:04:22.548Z,11.30
2018-01-18T19:06:50.812Z,12.10
2018-01-18T19:09:19.058Z,12.03
2018-01-18T19:11:47.394Z,11.20
2018-01-18T19:14:15.649Z,10.10
2018-01-18T19:16:44.656Z,11.30
2018-01-18T19:19:12.851Z,11.40
2018-01-18T19:21:41.801Z,9.27
2018-01-18T19:24:10.086Z,9.87
2018-01-18T19:26:38.444Z,9.33
2018-01-18T19:29:06.621Z,9.90
2018-01-18T19:31:41.796Z,10.07
2018-01-18T19:34:09.979Z,9.37
2018-01-18T19:36:42.881Z,8.77
2018-01-18T19:39:11.134Z,9.47
2018-01-18T19:41:39.325Z,8.43
2018-01-18T19:44:07.467Z,6.80
2018-01-18T19:46:35.659Z,6.80
2018-01-18T19:49:03.790Z,5.93
2018-01-18T19:51:31.988Z,5.10
2018-01-18T19:54:00.165Z,5.97
2018-01-18T19:56:29.362Z,6.00
2018-01-18T19:58:57.621Z,6.13
2018-01-18T20:01:25.746Z,6.50
2018-01-18T20:03:53.914Z,6.17
2018-01-18T20:06:22.844Z,5.50
2018-01-18T20:08:51.842Z,6.10
2018-01-18T20:11:20.350Z,5.70
2018-01-18T20:14:11.262Z,6.23
2018-01-18T20:16:42.423Z,6.37
2018-01-18T20:19:11.389Z,7.07
2018-01-18T20:21:39.639Z,6.60
2018-01-18T20:24:10.264Z,7.00
2018-01-18T20:26:38.628Z,7.60
2018-01-18T20:29:07.643Z,7.00
2018-01-18T20:31:36.288Z,6.30
2018-01-18T20:34:04.444Z,6.53
2018-01-18T20:36:32.787Z,6.77
2018-01-18T20:39:09.533Z,7.93
2018-01-18T20:41:39.611Z,8.17
2018-01-18T21:41:06.661Z,7.10
2018-01-18T21:43:39.135Z,6.53
2018-01-18T21:46:09.892Z,7.23
2018-01-18T21:48:38.091Z,7.33
2018-01-18T21:51:06.297Z,6.30
2018-01-18T21:53:35.512Z,6.40
2018-01-18T21:56:03.674Z,6.33
2018-01-18T21:58:31.779Z,6.50
2018-01-18T22:00:59.864Z,6.20
2018-01-18T22:03:28.076Z,6.30
2018-01-18T22:05:56.193Z,5.57
2018-01-18T22:08:24.267Z,5.80
2018-01-18T22:10:54.333Z,6.03
2018-01-18T22:13:22.473Z,6.60
2018-01-18T22:15:51.357Z,6.10
2018-01-18T22:18:19.650Z,6.77
2018-01-18T22:20:47.745Z,6.47
2018-01-18T22:23:16.843Z,7.17
2018-01-18T22:25:44.929Z,6.90
2018-01-18T22:28:13.034Z,7.00
2018-01-18T22:30:50.770Z,7.10
2018-01-18T22:33:18.881Z,7.07
2018-01-18T22:35:46.985Z,6.17
2018-01-18T22:38:15.076Z,7.10
2018-01-18T22:40:44.817Z,7.47
2018-01-18T22:43:13.728Z,7.80
2018-01-18T22:45:41.809Z,8.37
2018-01-18T22:48:09.911Z,8.17
2018-01-18T22:50:38.021Z,8.00
2018-01-18T22:53:06.112Z,8.83
2018-01-18T22:55:34.284Z,8.60
2018-01-18T22:58:02.387Z,8.20
2018-01-18T23:00:30.524Z,9.20
2018-01-18T23:02:58.621Z,10.20
2018-01-18T23:05:26.738Z,8.50
2018-01-18T23:07:54.903Z,8.63
2018-01-18T23:10:23.010Z,9.20
2018-01-18T23:12:51.125Z,10.60
2018-01-18T23:15:20.000Z,14.27
2018-01-18T23:17:49.457Z,13.73
2018-01-18T23:20:17.565Z,11.60
2018-01-18T23:22:45.680Z,10.13
2018-01-18T23:25:13.789Z,9.67
2018-01-18T23:27:42.684Z,8.90
2018-01-18T23:30:10.789Z,8.67
2018-01-18T23:32:38.922Z,8.63
2018-01-18T23:35:07.067Z,7.97
2018-01-18T23:37:40.188Z,8.80
2018-01-18T23:40:08.288Z,9.00
2018-01-18T23:42:36.385Z,6.53
2018-01-18T23:45:04.506Z,7.47
2018-01-18T23:47:32.645Z,7.33
2018-01-18T23:50:00.753Z,7.10
2018-01-18T23:52:28.857Z,6.60
2018-01-18T23:54:57.717Z,5.83
2018-01-18T23:57:26.741Z,6.60
2018-01-18T23:59:55.222Z,5.70
